createdAt,value
2022-09-23T00:03:48.977Z,21.10
2022-09-23T00:08:52.814Z,17.60
2022-09-23T00:14:00.086Z,21.20
2022-09-23T00:19:04.522Z,20.30
2022-09-23T00:24:08.316Z,20.50
2022-09-23T00:29:11.574Z,19.40
2022-09-23T00:34:14.659Z,19.50
2022-09-23T00:39:17.717Z,17.70
2022-09-23T00:44:53.855Z,19.00
2022-09-23T00:50:08.618Z,17.70
2022-09-23T00:55:26.705Z,15.70
2022-09-23T01:00:29.882Z,15.90
2022-09-23T01:05:34.648Z,15.60
2022-09-23T01:10:56.098Z,14.00
2022-09-23T01:16:07.850Z,14.60
2022-09-23T01:21:39.417Z,15.40
2022-09-23T01:27:16.512Z,14.90
2022-09-23T01:33:05.496Z,13.70
2022-09-23T01:38:21.039Z,16.20
2022-09-23T01:43:55.080Z,14.80
2022-09-23T01:49:28.297Z,17.60
2022-09-23T01:54:46.503Z,14.30
2022-09-23T01:59:57.185Z,15.10
2022-09-23T02:05:18.973Z,15.10
2022-09-23T02:10:44.414Z,14.20
2022-09-23T02:15:54.122Z,15.00
2022-09-23T02:21:04.873Z,19.30
2022-09-23T02:26:30.673Z,17.40
2022-09-23T02:31:54.041Z,17.70
2022-09-23T02:37:09.233Z,17.00
2022-09-23T02:42:23.684Z,15.00
2022-09-23T02:47:32.741Z,17.40
2022-09-23T02:52:38.882Z,15.90
2022-09-23T02:57:42.130Z,14.30
2022-09-23T03:03:01.154Z,16.80
2022-09-23T03:08:52.180Z,16.00
2022-09-23T03:14:36.013Z,16.70
2022-09-23T03:19:51.177Z,15.20
2022-09-23T03:24:59.590Z,16.80
2022-09-23T03:30:04.641Z,16.60
2022-09-23T03:35:08.650Z,19.40
2022-09-23T03:40:35.603Z,17.90
2022-09-23T03:45:39.200Z,20.60
2022-09-23T03:50:42.344Z,17.30
2022-09-23T03:55:46.810Z,18.30
2022-09-23T04:00:49.943Z,15.50
2022-09-23T04:05:53.053Z,19.50
2022-09-23T04:11:01.732Z,19.20
2022-09-23T04:16:05.134Z,17.80
2022-09-23T04:21:08.263Z,17.30
2022-09-23T04:26:12.539Z,17.10
2022-09-23T04:31:15.606Z,18.70
2022-09-23T04:36:18.818Z,20.90
2022-09-23T04:41:21.989Z,15.00
2022-09-23T04:46:25.114Z,18.70
2022-09-23T04:51:28.941Z,17.90
2022-09-23T05:01:38.689Z,16.10
2022-09-23T05:06:45.338Z,17.10
2022-09-23T05:11:48.683Z,25.10
2022-09-23T05:16:51.601Z,23.20
2022-09-23T05:21:54.460Z,22.90
2022-09-23T05:26:57.297Z,27.20
2022-09-23T05:32:01.678Z,28.60
2022-09-23T05:37:05.433Z,30.50
2022-09-23T05:47:11.193Z,24.60
2022-09-23T05:52:14.062Z,27.10
2022-09-23T05:57:16.929Z,28.30
2022-09-23T06:02:19.841Z,26.60
2022-09-23T06:07:22.817Z,26.40
2022-09-23T06:12:25.687Z,25.40
2022-09-23T06:17:28.571Z,25.00
2022-09-23T06:22:31.728Z,26.20
2022-09-23T06:27:35.053Z,26.80
2022-09-23T06:32:38.005Z,27.20
2022-09-23T06:37:40.907Z,31.30
2022-09-23T06:42:47.108Z,31.00
2022-09-23T06:47:58.299Z,27.80
2022-09-23T06:53:01.237Z,26.30
2022-09-23T06:58:04.138Z,24.90
2022-09-23T07:03:08.935Z,23.10
2022-09-23T07:08:11.811Z,22.30
2022-09-23T07:13:16.401Z,15.90
2022-09-23T07:18:22.019Z,17.10
2022-09-23T07:23:25.928Z,16.10
2022-09-23T07:33:33.415Z,18.30
2022-09-23T07:38:41.628Z,17.70
2022-09-23T07:43:48.136Z,15.50
2022-09-23T07:48:50.999Z,12.60
2022-09-23T07:53:56.882Z,18.00
2022-09-23T07:59:01.747Z,11.60
2022-09-23T08:04:11.091Z,13.50
2022-09-23T08:09:14.943Z,10.80
2022-09-23T08:14:18.552Z,11.10
2022-09-23T08:24:26.674Z,8.50
2022-09-23T08:29:29.713Z,10.00
2022-09-23T08:34:32.562Z,9.80
2022-09-23T08:39:35.461Z,7.00
2022-09-23T08:44:56.876Z,6.90
2022-09-23T08:50:27.002Z,9.00
2022-09-23T08:55:42.119Z,5.50
2022-09-23T09:01:08.116Z,3.50
2022-09-23T09:06:19.043Z,3.40
2022-09-23T09:11:24.258Z,5.90
2022-09-23T09:16:59.846Z,4.90
2022-09-23T09:22:09.527Z,3.50
2022-09-23T09:27:13.945Z,3.10
2022-09-23T09:32:46.476Z,4.10
2022-09-23T09:37:49.484Z,5.40
2022-09-23T09:42:52.497Z,4.90
2022-09-23T09:48:13.631Z,5.80
2022-09-23T09:53:30.604Z,5.00
2022-09-23T09:59:00.434Z,4.20
2022-09-23T10:04:33.993Z,4.20
2022-09-23T10:09:39.840Z,5.50
2022-09-23T10:14:43.789Z,4.60
2022-09-23T10:24:55.203Z,4.90
2022-09-23T10:30:21.848Z,5.20
2022-09-23T10:35:26.685Z,3.50
2022-09-23T10:40:48.286Z,4.30
2022-09-23T10:46:12.705Z,8.10
2022-09-23T10:52:22.412Z,3.50
2022-09-23T10:58:00.130Z,4.30
2022-09-23T11:03:26.047Z,4.10
2022-09-23T11:08:32.061Z,5.10
2022-09-23T11:13:58.989Z,3.80
2022-09-23T11:19:32.429Z,3.30
2022-09-23T11:25:05.221Z,3.90
2022-09-23T11:35:56.936Z,3.00
2022-09-23T11:41:09.991Z,3.30
2022-09-23T11:46:40.912Z,3.60
2022-09-23T11:52:06.051Z,3.60
2022-09-23T11:57:23.258Z,3.90
2022-09-23T12:03:05.842Z,4.20
2022-09-23T12:08:29.443Z,4.10
2022-09-23T12:14:03.556Z,4.70
2022-09-23T12:19:19.235Z,1.90
2022-09-23T12:24:52.143Z,2.50
2022-09-23T12:35:02.846Z,3.30
2022-09-23T12:40:19.218Z,3.60
2022-09-23T12:45:32.769Z,4.00
2022-09-23T12:50:54.994Z,2.40
2022-09-23T12:55:59.642Z,3.10
2022-09-23T13:01:20.245Z,2.40
2022-09-23T13:06:40.238Z,3.60
2022-09-23T13:11:48.025Z,2.30
2022-09-23T13:16:51.859Z,3.50
2022-09-23T13:21:54.662Z,4.70
2022-09-23T13:27:15.781Z,3.90
2022-09-23T13:32:21.792Z,5.10
2022-09-23T13:37:38.886Z,3.90
2022-09-23T13:42:43.944Z,3.40
2022-09-23T13:47:49.207Z,3.50
2022-09-23T13:52:56.649Z,2.50
2022-09-23T13:58:06.122Z,3.30
2022-09-23T14:03:21.731Z,4.50
2022-09-23T14:08:25.544Z,4.90
2022-09-23T14:13:32.293Z,4.40
2022-09-23T14:18:40.533Z,5.60
2022-09-23T14:23:46.431Z,4.80
2022-09-23T14:28:50.512Z,5.70
2022-09-23T14:33:53.405Z,3.90
2022-09-23T14:39:12.486Z,4.90
2022-09-23T14:44:25.158Z,4.80
2022-09-23T14:49:28.176Z,4.00
2022-09-23T14:54:44.289Z,6.00
2022-09-23T14:59:53.732Z,22.00
2022-09-23T15:05:45.257Z,6.60
2022-09-23T15:10:48.873Z,6.00
2022-09-23T15:21:18.581Z,7.30
2022-09-23T15:26:23.925Z,8.10
2022-09-23T15:31:27.337Z,10.80
2022-09-23T15:41:33.751Z,9.10
2022-09-23T15:46:36.646Z,10.20
2022-09-23T15:51:39.631Z,10.50
2022-09-23T15:56:42.632Z,10.10
2022-09-23T16:01:46.010Z,9.70
2022-09-23T16:06:50.521Z,11.00
2022-09-23T16:11:53.347Z,8.40
2022-09-23T16:16:56.328Z,11.30
2022-09-23T16:21:59.284Z,13.50
2022-09-23T16:27:07.874Z,13.10
2022-09-23T16:32:10.752Z,12.40
2022-09-23T16:37:16.515Z,11.10
2022-09-23T16:42:19.970Z,10.70
2022-09-23T16:47:23.034Z,13.20
2022-09-23T16:52:25.956Z,13.40
2022-09-23T16:57:32.513Z,109.50
2022-09-23T17:02:54.065Z,507.10
2022-09-23T17:07:57.654Z,619.30
2022-09-23T17:18:06.499Z,231.30
2022-09-23T17:23:09.515Z,297.40
2022-09-23T17:28:12.362Z,377.70
2022-09-23T17:33:20.052Z,434.70
2022-09-23T17:38:29.335Z,482.70
2022-09-23T17:49:01.837Z,214.20
2022-09-23T17:54:04.833Z,195.40
2022-09-23T17:59:12.726Z,231.00
2022-09-23T18:04:15.647Z,285.00
2022-09-23T18:09:19.550Z,238.10
2022-09-23T18:14:23.589Z,232.10
2022-09-23T18:19:26.913Z,220.20
2022-09-23T18:24:33.336Z,297.60
2022-09-23T18:29:38.036Z,160.10
2022-09-23T18:34:43.486Z,143.90
2022-09-23T18:39:46.454Z,118.50
2022-09-23T18:44:58.825Z,69.10
2022-09-23T18:50:20.447Z,154.80
2022-09-23T18:55:28.677Z,78.80
2022-09-23T19:00:31.669Z,73.10
2022-09-23T19:05:34.682Z,72.20
2022-09-23T19:10:37.549Z,49.10
2022-09-23T19:15:40.471Z,74.20
2022-09-23T19:20:54.270Z,57.00
2022-09-23T19:25:57.157Z,61.80
2022-09-23T19:31:16.815Z,51.40
2022-09-23T19:36:28.622Z,50.40
2022-09-23T19:41:33.612Z,45.30
2022-09-23T19:46:40.880Z,42.40
2022-09-23T19:51:46.499Z,47.90
2022-09-23T19:56:50.265Z,64.70
2022-09-23T20:01:53.337Z,48.70
2022-09-23T20:06:56.250Z,62.80
2022-09-23T20:12:01.281Z,53.60
2022-09-23T20:17:04.152Z,45.50
2022-09-23T20:22:27.493Z,36.40
2022-09-23T20:27:34.960Z,46.50
2022-09-23T20:32:40.744Z,84.60
2022-09-23T20:37:46.925Z,95.70
2022-09-23T20:42:49.847Z,81.40
2022-09-23T20:47:52.739Z,76.40
2022-09-23T20:52:56.460Z,59.50
2022-09-23T21:03:02.957Z,47.20
2022-09-23T21:08:05.889Z,49.30
2022-09-23T21:13:08.789Z,42.70
2022-09-23T21:18:15.583Z,43.10
2022-09-23T21:23:21.953Z,37.90
2022-09-23T21:28:26.967Z,39.30
2022-09-23T21:33:31.041Z,35.90
2022-09-23T21:38:38.046Z,29.10
2022-09-23T21:43:41.658Z,25.30
2022-09-23T21:48:44.517Z,22.70
2022-09-23T21:53:47.580Z,21.20
2022-09-23T21:58:52.833Z,23.00
2022-09-23T22:04:09.571Z,22.40
2022-09-23T22:09:19.418Z,21.50
2022-09-23T22:14:26.046Z,22.10
2022-09-23T22:19:44.225Z,24.10
2022-09-23T22:24:50.096Z,22.40
2022-09-23T22:30:11.439Z,23.50
2022-09-23T22:35:17.913Z,27.00
2022-09-23T22:40:24.364Z,29.40
2022-09-23T22:45:27.774Z,28.10
2022-09-23T22:50:30.807Z,27.90
2022-09-23T22:55:34.418Z,24.00
2022-09-23T23:00:38.214Z,22.10
2022-09-23T23:10:44.344Z,20.20
2022-09-23T23:15:49.001Z,26.10
2022-09-23T23:20:52.108Z,23.30
2022-09-23T23:25:55.309Z,24.30
2022-09-23T23:31:07.647Z,22.70
2022-09-23T23:36:13.548Z,18.80
2022-09-23T23:41:20.405Z,23.20
2022-09-23T23:46:26.586Z,19.90
2022-09-23T23:51:30.155Z,22.80
2022-09-23T23:56:33.288Z,20.80
